Terminal Aerodrome Forecast
Issued by NWS Anchorage, AK

Home | Current Version | Previous Version | Text Only | Print | Product List | Glossary On
Versions: 1 2 3 4 5 6 7 8 9 10 11 12 13 14 15 16 17 18 19 20 21 22 23 24 25 26 27 28 29 30 31 32 33 34 35 36 37 38 39 40 41 42 43 44 45 46 47 48 49 50
000
FTAK31 PANC 102343
TAFANC
TAF
PANC 102343Z 1100/1206 33007KT P6SM SCT035 BKN070 WS020/13035KT
     FM110200 36012KT P6SM VCSH SCT035 OVC060
     FM110400 34014G20KT P6SM -RA SCT030 OVC045
     FM110800 33010G18KT P6SM VCSH SCT045 BKN070 WS020/13045KT
     FM111500 15022G36KT P6SM SCT060 BKN080
     FM112200 15016G26KT P6SM SCT070 BKN100=

USA.gov is the U.S. government's official web portal to all federal, state and local government web resources and services.